F/V Cote D'ambre — FPEY — position and weather

sailwx.info

Track history (hours):
 
Tides and Currents Weather Stations Pressure Air Temp Water Temp Dewpoint Dewpoint Depression Visibility Wind Speed Wind Dir Waves Ship Positions

F/V Cote D'ambre

Last reported at 2016-Dec-08 07:33 UTC. Time now 2016-Dec-08 08:01 UTC.
Position N 47°16' W 003°35'.

Length 16 m; draft 4 m.

Type: Fishing. MMSI: 227128800.

Date/timePositionNaut miles runAvg speedWind from/ knotsBaromVisibWave heightAir tempDewpointWater temp
2016-Dec-08 07:33N 47°16' W 003°35'3 3.4
2016-Dec-08 06:34N 47°20' W 003°36'5 5.3
2016-Dec-08 05:34N 47°24' W 003°31'8 8.3
2016-Dec-08 04:34N 47°31' W 003°25'8 8.2
2016-Dec-08 03:34N 47°39' W 003°22'5 4.6
2016-Dec-08 02:33N 47°44' W 003°22'0 0.2
2016-Dec-08 01:34N 47°44' W 003°22'9 8.6
2016-Dec-08 00:34N 47°35' W 003°23'9 8.8
2016-Dec-07 23:34N 47°26' W 003°25'9 8.9
2016-Dec-07 22:34N 47°18' W 003°27'8 8.3
2016-Dec-07 21:34N 47°09' W 003°29'3 3.1
2016-Dec-07 20:33N 47°06' W 003°29'4 3.6
2016-Dec-07 19:33N 47°03' W 003°28'4 3.5
2016-Dec-07 18:33N 47°00' W 003°24'3 3.4
2016-Dec-07 17:33N 46°58' W 003°20'3 3.3
2016-Dec-07 16:33N 46°55' W 003°18'3 3.4
2016-Dec-07 15:34N 46°52' W 003°18'0 0.2
2016-Dec-07 14:33N 46°52' W 003°18'3 3.3
2016-Dec-07 13:30N 46°55' W 003°18'1 1.2
2016-Dec-07 12:33N 46°54' W 003°17'3 3.3
2016-Dec-07 11:33N 46°51' W 003°18'1 1.0
2016-Dec-07 10:33N 46°50' W 003°17'2 1.8
2016-Dec-07 09:34N 46°52' W 003°18'3 3.3
2016-Dec-07 08:34N 46°55' W 003°18'3 3.0
2016-Dec-07 07:33N 46°58' W 003°20'3 3.1
2016-Dec-07 06:33N 47°00' W 003°23'4 3.6
2016-Dec-07 05:33N 47°02' W 003°27'3 2.8
2016-Dec-07 04:33N 47°04' W 003°31'2 2.2
2016-Dec-07 03:34N 47°03' W 003°28'4 3.7
2016-Dec-07 02:30N 47°00' W 003°24'3 3.3
2016-Dec-07 01:28N 46°58' W 003°20'2 1.7
2016-Dec-07 00:33N 46°59' W 003°22'3 3.0
2016-Dec-06 23:25N 47°01' W 003°26'3 3.4
2016-Dec-06 22:33N 47°03' W 003°29'4 3.5
2016-Dec-06 21:33N 47°07' W 003°30'3 2.7
2016-Dec-06 20:34N 47°04' W 003°29'7 3.2
2016-Dec-06 18:19N 47°00' W 003°20'3 3.8
2016-Dec-06 17:25N 46°57' W 003°19'3 3.0
2016-Dec-06 16:27N 46°54' W 003°17'3 3.5
2016-Dec-06 15:31N 46°51' W 003°18'0 0.3
2016-Dec-06 14:30N 46°51' W 003°18'3 3.0
2016-Dec-06 13:30N 46°54' W 003°18'3 2.7
2016-Dec-06 12:33N 46°57' W 003°19'4 2.9
2016-Dec-06 11:12N 47°00' W 003°22'3 3.0
2016-Dec-06 10:16N 47°01' W 003°26'3 3.4
2016-Dec-06 09:24N 47°03' W 003°29'4 3.5
2016-Dec-06 08:19N 47°07' W 003°29'3 3.8
2016-Dec-06 07:33N 47°10' W 003°29'5 4.4
2016-Dec-06 06:28N 47°15' W 003°29'7 8.2
2016-Dec-06 05:33N 47°22' W 003°27'8 8.3
2016-Dec-06 04:33N 47°30' W 003°24'8 8.3
2016-Dec-06 03:33N 47°38' W 003°22'5 0.3
2016-Dec-05 11:31N 47°44' W 003°22'0 0.1
2016-Dec-05 10:31N 47°44' W 003°22'0 0.0
2016-Dec-05 09:31N 47°44' W 003°22'0 0.0
2016-Dec-05 08:31N 47°44' W 003°22'0 0.0
2016-Dec-03 04:33N 47°44' W 003°22'0 0.2
2016-Dec-03 03:31N 47°44' W 003°22'0 0.0
2016-Dec-03 02:31N 47°44' W 003°22'1 1.4
2016-Dec-03 01:33N 47°42' W 003°22'9 8.5
2016-Dec-03 00:33N 47°34' W 003°22'8 8.3
2016-Dec-02 23:33N 47°26' W 003°23'8 8.2
2016-Dec-02 22:33N 47°18' W 003°24'9 7.9
2016-Dec-02 21:27N 47°09' W 003°25'18 3.0
2016-Dec-02 15:26N 46°51' W 003°20'3 2.9
2016-Dec-02 14:30N 46°54' W 003°20'3 2.1
2016-Dec-02 13:08N 46°51' W 003°18'2 3.6
2016-Dec-02 12:33N 46°49' W 003°17'2 1.8
2016-Dec-02 11:33N 46°51' W 003°18'2 2.4
2016-Dec-02 10:33N 46°53' W 003°20'3 2.5
2016-Dec-02 09:33N 46°55' W 003°18'3 3.1
2016-Dec-02 08:33N 46°58' W 003°19'3 3.2
2016-Dec-02 07:33N 47°01' W 003°20'3 3.0
2016-Dec-02 06:33N 47°04' W 003°23'2 2.1
2016-Dec-02 05:34N 47°06' W 003°24'3 2.9
2016-Dec-02 04:33N 47°03' W 003°23'3 3.3
2016-Dec-02 03:33N 46°60' W 003°22'3 3.3
2016-Dec-02 02:33N 46°57' W 003°20'3 3.3
2016-Dec-02 01:33N 46°54' W 003°17'1 1.1
2016-Dec-02 00:33N 46°55' W 003°18'3 2.8
2016-Dec-01 23:33N 46°57' W 003°21'3 3.1
2016-Dec-01 22:33N 46°60' W 003°23'3 3.2
2016-Dec-01 21:30N 47°03' W 003°24'3 2.9
2016-Dec-01 20:33N 47°06' W 003°24'2 1.8
2016-Dec-01 19:14N 47°04' W 003°24'9 3.1
2016-Dec-01 16:19N 46°55' W 003°18'22 2.5
2016-Dec-01 07:30N 47°15' W 003°33'8 8.3
2016-Dec-01 06:33N 47°22' W 003°29'8 8.2
2016-Dec-01 05:33N 47°30' W 003°25'8 8.1
2016-Dec-01 04:33N 47°38' W 003°22'6 5.7
2016-Dec-01 03:32N 47°44' W 003°22'0 0.1
2016-Dec-01 02:31N 47°44' W 003°22'1 0.9
2016-Dec-01 01:34N 47°43' W 003°22'9 9.1
2016-Dec-01 00:34N 47°34' W 003°23'9 8.8
2016-Nov-30 23:33N 47°25' W 003°26'9 8.9
2016-Nov-30 22:33N 47°17' W 003°29'11 0.6
2016-Nov-30 04:20N 47°06' W 003°35'2 2.6
2016-Nov-30 03:29N 47°08' W 003°37'13 3.2
2016-Nov-29 23:31N 47°20' W 003°32'4 3.9
2016-Nov-29 22:26N 47°20' W 003°26'0 0.5
2016-Nov-29 21:27N 47°20' W 003°26'3 2.9
2016-Nov-29 20:33N 47°22' W 003°28'3 3.2
2016-Nov-29 19:33N 47°24' W 003°31'2 1.8
2016-Nov-29 18:33N 47°26' W 003°30'7 7.5
2016-Nov-29 17:33N 47°32' W 003°25'9 8.6
2016-Nov-29 16:33N 47°41' W 003°22'3 1.0
2016-Nov-29 13:31N 47°44' W 003°22'0 0.1
2016-Nov-29 12:33N 47°44' W 003°22'9 8.7
2016-Nov-29 11:33N 47°35' W 003°22'9 8.6
2016-Nov-29 10:33N 47°27' W 003°24'8 8.4
2016-Nov-29 09:33N 47°18' W 003°26'2 0.1
2016-Nov-28 17:33N 47°19' W 003°29'3 3.3
2016-Nov-28 16:33N 47°20' W 003°24'3 2.7
2016-Nov-28 15:33N 47°21' W 003°28'1 1.0
2016-Nov-28 14:33N 47°20' W 003°26'2 2.2
2016-Nov-28 13:33N 47°20' W 003°23'2 1.9
2016-Nov-28 12:33N 47°20' W 003°26'0 0.5
2016-Nov-28 11:33N 47°20' W 003°26'3 2.8
2016-Nov-28 10:33N 47°21' W 003°30'2 2.4
2016-Nov-28 09:33N 47°21' W 003°27'2 2.5
2016-Nov-28 08:33N 47°19' W 003°24'3 2.9
2016-Nov-28 07:33N 47°21' W 003°28'  
Track history (hours):
 
Tides and Currents Weather Stations Pressure Air Temp Water Temp Dewpoint Dewpoint Depression Visibility Wind Speed Wind Dir Waves Ship Positions

F/V Cote D'ambre

Last reported at 2016-Dec-08 07:33 UTC. Time now 2016-Dec-08 08:01 UTC.
Position N 47°16' W 003°35'.

Length 16 m; draft 4 m.

Type: Fishing. MMSI: 227128800.

Date/timePositionNaut miles runAvg speedWind from/ knotsBaromVisibWave heightAir tempDewpointWater temp
2016-Dec-08 07:33N 47°16' W 003°35'3 3.4
2016-Dec-08 06:34N 47°20' W 003°36'5 5.3
2016-Dec-08 05:34N 47°24' W 003°31'8 8.3
2016-Dec-08 04:34N 47°31' W 003°25'8 8.2
2016-Dec-08 03:34N 47°39' W 003°22'5 4.6
2016-Dec-08 02:33N 47°44' W 003°22'0 0.2
2016-Dec-08 01:34N 47°44' W 003°22'9 8.6
2016-Dec-08 00:34N 47°35' W 003°23'9 8.8
2016-Dec-07 23:34N 47°26' W 003°25'9 8.9
2016-Dec-07 22:34N 47°18' W 003°27'8 8.3
2016-Dec-07 21:34N 47°09' W 003°29'3 3.1
2016-Dec-07 20:33N 47°06' W 003°29'4 3.6
2016-Dec-07 19:33N 47°03' W 003°28'4 3.5
2016-Dec-07 18:33N 47°00' W 003°24'3 3.4
2016-Dec-07 17:33N 46°58' W 003°20'3 3.3
2016-Dec-07 16:33N 46°55' W 003°18'3 3.4
2016-Dec-07 15:34N 46°52' W 003°18'0 0.2
2016-Dec-07 14:33N 46°52' W 003°18'3 3.3
2016-Dec-07 13:30N 46°55' W 003°18'1 1.2
2016-Dec-07 12:33N 46°54' W 003°17'3 3.3
2016-Dec-07 11:33N 46°51' W 003°18'1 1.0
2016-Dec-07 10:33N 46°50' W 003°17'2 1.8
2016-Dec-07 09:34N 46°52' W 003°18'3 3.3
2016-Dec-07 08:34N 46°55' W 003°18'3 3.0
2016-Dec-07 07:33N 46°58' W 003°20'3 3.1
2016-Dec-07 06:33N 47°00' W 003°23'4 3.6
2016-Dec-07 05:33N 47°02' W 003°27'3 2.8
2016-Dec-07 04:33N 47°04' W 003°31'2 2.2
2016-Dec-07 03:34N 47°03' W 003°28'4 3.7
2016-Dec-07 02:30N 47°00' W 003°24'3 3.3
2016-Dec-07 01:28N 46°58' W 003°20'2 1.7
2016-Dec-07 00:33N 46°59' W 003°22'3 3.0
2016-Dec-06 23:25N 47°01' W 003°26'3 3.4
2016-Dec-06 22:33N 47°03' W 003°29'4 3.5
2016-Dec-06 21:33N 47°07' W 003°30'3 2.7
2016-Dec-06 20:34N 47°04' W 003°29'7 3.2
2016-Dec-06 18:19N 47°00' W 003°20'3 3.8
2016-Dec-06 17:25N 46°57' W 003°19'3 3.0
2016-Dec-06 16:27N 46°54' W 003°17'3 3.5
2016-Dec-06 15:31N 46°51' W 003°18'0 0.3
2016-Dec-06 14:30N 46°51' W 003°18'3 3.0
2016-Dec-06 13:30N 46°54' W 003°18'3 2.7
2016-Dec-06 12:33N 46°57' W 003°19'4 2.9
2016-Dec-06 11:12N 47°00' W 003°22'3 3.0
2016-Dec-06 10:16N 47°01' W 003°26'3 3.4
2016-Dec-06 09:24N 47°03' W 003°29'4 3.5
2016-Dec-06 08:19N 47°07' W 003°29'3 3.8
2016-Dec-06 07:33N 47°10' W 003°29'5 4.4
2016-Dec-06 06:28N 47°15' W 003°29'7 8.2
2016-Dec-06 05:33N 47°22' W 003°27'8 8.3
2016-Dec-06 04:33N 47°30' W 003°24'8 8.3
2016-Dec-06 03:33N 47°38' W 003°22'5 0.3
2016-Dec-05 11:31N 47°44' W 003°22'0 0.1
2016-Dec-05 10:31N 47°44' W 003°22'0 0.0
2016-Dec-05 09:31N 47°44' W 003°22'0 0.0
2016-Dec-05 08:31N 47°44' W 003°22'0 0.0
2016-Dec-03 04:33N 47°44' W 003°22'0 0.2
2016-Dec-03 03:31N 47°44' W 003°22'0 0.0
2016-Dec-03 02:31N 47°44' W 003°22'1 1.4
2016-Dec-03 01:33N 47°42' W 003°22'9 8.5
2016-Dec-03 00:33N 47°34' W 003°22'8 8.3
2016-Dec-02 23:33N 47°26' W 003°23'8 8.2
2016-Dec-02 22:33N 47°18' W 003°24'9 7.9
2016-Dec-02 21:27N 47°09' W 003°25'18 3.0
2016-Dec-02 15:26N 46°51' W 003°20'3 2.9
2016-Dec-02 14:30N 46°54' W 003°20'3 2.1
2016-Dec-02 13:08N 46°51' W 003°18'2 3.6
2016-Dec-02 12:33N 46°49' W 003°17'2 1.8
2016-Dec-02 11:33N 46°51' W 003°18'2 2.4
2016-Dec-02 10:33N 46°53' W 003°20'3 2.5
2016-Dec-02 09:33N 46°55' W 003°18'3 3.1
2016-Dec-02 08:33N 46°58' W 003°19'3 3.2
2016-Dec-02 07:33N 47°01' W 003°20'3 3.0
2016-Dec-02 06:33N 47°04' W 003°23'2 2.1
2016-Dec-02 05:34N 47°06' W 003°24'3 2.9
2016-Dec-02 04:33N 47°03' W 003°23'3 3.3
2016-Dec-02 03:33N 46°60' W 003°22'3 3.3
2016-Dec-02 02:33N 46°57' W 003°20'3 3.3
2016-Dec-02 01:33N 46°54' W 003°17'1 1.1
2016-Dec-02 00:33N 46°55' W 003°18'3 2.8
2016-Dec-01 23:33N 46°57' W 003°21'3 3.1
2016-Dec-01 22:33N 46°60' W 003°23'3 3.2
2016-Dec-01 21:30N 47°03' W 003°24'3 2.9
2016-Dec-01 20:33N 47°06' W 003°24'2 1.8
2016-Dec-01 19:14N 47°04' W 003°24'9 3.1
2016-Dec-01 16:19N 46°55' W 003°18'22 2.5
2016-Dec-01 07:30N 47°15' W 003°33'8 8.3
2016-Dec-01 06:33N 47°22' W 003°29'8 8.2
2016-Dec-01 05:33N 47°30' W 003°25'8 8.1
2016-Dec-01 04:33N 47°38' W 003°22'6 5.7
2016-Dec-01 03:32N 47°44' W 003°22'0 0.1
2016-Dec-01 02:31N 47°44' W 003°22'1 0.9
2016-Dec-01 01:34N 47°43' W 003°22'9 9.1
2016-Dec-01 00:34N 47°34' W 003°23'9 8.8
2016-Nov-30 23:33N 47°25' W 003°26'9 8.9
2016-Nov-30 22:33N 47°17' W 003°29'11 0.6
2016-Nov-30 04:20N 47°06' W 003°35'2 2.6
2016-Nov-30 03:29N 47°08' W 003°37'13 3.2
2016-Nov-29 23:31N 47°20' W 003°32'4 3.9
2016-Nov-29 22:26N 47°20' W 003°26'0 0.5
2016-Nov-29 21:27N 47°20' W 003°26'3 2.9
2016-Nov-29 20:33N 47°22' W 003°28'3 3.2
2016-Nov-29 19:33N 47°24' W 003°31'2 1.8
2016-Nov-29 18:33N 47°26' W 003°30'7 7.5
2016-Nov-29 17:33N 47°32' W 003°25'9 8.6
2016-Nov-29 16:33N 47°41' W 003°22'3 1.0
2016-Nov-29 13:31N 47°44' W 003°22'0 0.1
2016-Nov-29 12:33N 47°44' W 003°22'9 8.7
2016-Nov-29 11:33N 47°35' W 003°22'9 8.6
2016-Nov-29 10:33N 47°27' W 003°24'8 8.4
2016-Nov-29 09:33N 47°18' W 003°26'2 0.1
2016-Nov-28 17:33N 47°19' W 003°29'3 3.3
2016-Nov-28 16:33N 47°20' W 003°24'3 2.7
2016-Nov-28 15:33N 47°21' W 003°28'1 1.0
2016-Nov-28 14:33N 47°20' W 003°26'2 2.2
2016-Nov-28 13:33N 47°20' W 003°23'2 1.9
2016-Nov-28 12:33N 47°20' W 003°26'0 0.5
2016-Nov-28 11:33N 47°20' W 003°26'3 2.8
2016-Nov-28 10:33N 47°21' W 003°30'2 2.4
2016-Nov-28 09:33N 47°21' W 003°27'2 2.5
2016-Nov-28 08:33N 47°19' W 003°24'3 2.9
2016-Nov-28 07:33N 47°21' W 003°28'  

Dump ship's entire track history